map of LAZ home
LAZ - Airport
Location
City:  Bom Jesus da Lapa, Bahia, Brazil
ICAO:SBLP
IATA:LAZ

Details
Type:Airport (Aerodrome, Airfield)
Latitude:1315'44"S (-13.262085)
Longitude:4324'29"W (-43.408113)
Datum:WGS 1984
Elevation:1454 ft (443 m)
Variation:22.85W (WMM2015 magnetic declination)
-0.06 annual change
Runways:1
Longest:3973 × 98 ft (1211 × 30 m), paved

Time
Time Zone:UTC-3
Local Time:

Weather
METAR:SBLP 152000Z 06007KT 9999 FEW030 BKN100 35/17 Q////
TAF:SBLP 160200Z 1606/1618 33006KT 9999 FEW030 TN32/1611Z TX38/1617Z
RMK PBO

Related Locations
Nearby:
Farthest:YAP: 12155 mi / 19561 km
Yap Island [Yap Intl], YAP, FM

Find:

   beyond  
but within

Other Information
Maps:
NOTAMs:
Links:
Sources:

  
  • flag of Brazil
  • flag of Bahia
  

Sectional Chart

Flight Planning
at skyvector.com

Satellite Image

Google Maps Satellite view

 

Copyright © 2004-2018 Karl L. Swartz. All rights reserved.
The Great Circle Mapper name and logo are trademarks of the Great Circle Mapper.
All other trademarks mentioned herein belong to their respective owners.
Please see credits for attibutions and further copyright information.

  Follow gcmap on Facebook Follow gcmap on Twitter Follow gcmap on Google+ GCmap on LinkedIn

hCard Microformat

Geo Microformat